createdAt,value
2023-04-09T00:01:10.551Z,100296.75
2023-04-09T00:06:16.117Z,100318.22
2023-04-09T00:11:21.075Z,100285.28
2023-04-09T00:16:26.653Z,100273.97
2023-04-09T00:21:32.451Z,100287.78
2023-04-09T00:26:37.526Z,100298.97
2023-04-09T00:31:41.850Z,100284.25
2023-04-09T00:36:46.927Z,100280.69
2023-04-09T00:41:51.695Z,100291.19
2023-04-09T00:46:58.427Z,100269.53
2023-04-09T00:52:04.349Z,100259.56
2023-04-09T00:57:09.289Z,100260.25
2023-04-09T01:02:14.643Z,100256.06
2023-04-09T01:07:36.261Z,100260.47
2023-04-09T01:12:50.593Z,100264.81
2023-04-09T01:18:07.617Z,100274.03
2023-04-09T01:23:18.441Z,100262.03
2023-04-09T01:28:45.105Z,100263.06
2023-04-09T01:33:50.226Z,100255.06
2023-04-09T01:38:57.671Z,100252.78
2023-04-09T01:44:05.196Z,100253.13
2023-04-09T01:49:11.151Z,100249.38
2023-04-09T01:54:17.435Z,100248.72
2023-04-09T01:59:22.320Z,100244.31
2023-04-09T02:04:31.942Z,100236.59
2023-04-09T02:09:41.065Z,100235.22
2023-04-09T02:14:48.421Z,100223.41
2023-04-09T02:19:54.053Z,100207.63
2023-04-09T02:24:58.940Z,100210.53
2023-04-09T02:30:04.207Z,100225.31
2023-04-09T02:35:09.401Z,100203.13
2023-04-09T02:40:14.667Z,100199.38
2023-04-09T02:45:19.552Z,100177.56
2023-04-09T02:50:24.777Z,100167.41
2023-04-09T02:55:30.970Z,100186.00
2023-04-09T03:00:35.964Z,100177.25
2023-04-09T03:05:40.764Z,100151.19
2023-04-09T03:10:45.554Z,100134.13
2023-04-09T03:15:57.532Z,100155.06
2023-04-09T03:21:06.180Z,100131.28
2023-04-09T03:26:13.210Z,100116.03
2023-04-09T03:31:24.843Z,100100.78
2023-04-09T03:36:29.563Z,100092.28
2023-04-09T03:41:39.679Z,100090.91
2023-04-09T03:46:49.022Z,100092.38
2023-04-09T03:51:56.565Z,100066.53
2023-04-09T03:57:05.846Z,100063.53
2023-04-09T04:02:15.650Z,100042.88
2023-04-09T04:07:26.334Z,100058.72
2023-04-09T04:12:37.433Z,100037.56
2023-04-09T04:17:47.178Z,100024.25
2023-04-09T04:23:15.021Z,100000.56
2023-04-09T04:28:29.626Z,99991.66
2023-04-09T04:33:35.323Z,99972.13
2023-04-09T04:38:43.131Z,99968.75
2023-04-09T04:43:56.921Z,99957.22
2023-04-09T04:49:04.007Z,99946.47
2023-04-09T04:54:12.623Z,99959.25
2023-04-09T04:59:25.233Z,99930.03
2023-04-09T05:04:37.572Z,99945.38
2023-04-09T05:09:46.489Z,99917.09
2023-04-09T05:14:51.638Z,99904.28
2023-04-09T05:19:59.144Z,99897.16
2023-04-09T05:25:12.956Z,99893.97
2023-04-09T05:30:20.506Z,99878.75
2023-04-09T05:35:28.076Z,99864.16
2023-04-09T05:40:34.494Z,99848.75
2023-04-09T05:45:43.586Z,99835.59
2023-04-09T05:50:55.638Z,99817.22
2023-04-09T05:56:04.398Z,99818.38
2023-04-09T06:01:28.422Z,99807.19
2023-04-09T06:06:34.662Z,99789.53
2023-04-09T06:11:39.835Z,99787.38
2023-04-09T06:16:44.844Z,99802.75
2023-04-09T06:21:50.350Z,99784.88
2023-04-09T06:26:55.375Z,99780.84
2023-04-09T06:32:00.068Z,99765.31
2023-04-09T06:37:05.187Z,99755.88
2023-04-09T06:42:11.192Z,99749.66
2023-04-09T06:47:28.388Z,99715.19
2023-04-09T06:52:34.823Z,99714.63
2023-04-09T06:57:40.513Z,99689.19
2023-04-09T07:02:46.530Z,99692.09
2023-04-09T07:07:51.993Z,99681.66
2023-04-09T07:12:57.434Z,99679.75
2023-04-09T07:18:02.528Z,99674.88
2023-04-09T07:23:07.343Z,99652.25
2023-04-09T07:28:12.899Z,99642.06
2023-04-09T07:33:21.056Z,99634.53
2023-04-09T07:38:26.058Z,99637.25
2023-04-09T07:43:30.948Z,99629.19
2023-04-09T07:48:36.039Z,99629.47
2023-04-09T07:53:40.927Z,99624.63
2023-04-09T07:58:50.784Z,99617.56
2023-04-09T08:03:55.227Z,99610.50
2023-04-09T08:09:01.822Z,99599.38
2023-04-09T08:14:08.697Z,99597.22
2023-04-09T08:19:16.099Z,99591.22
2023-04-09T08:24:21.547Z,99575.03
2023-04-09T08:29:26.780Z,99569.09
2023-04-09T08:34:31.599Z,99573.88
2023-04-09T08:39:37.822Z,99590.28
2023-04-09T08:44:42.854Z,99571.94
2023-04-09T08:49:49.821Z,99558.75
2023-04-09T08:54:55.198Z,99562.78
2023-04-09T09:00:00.674Z,99557.63
2023-04-09T09:05:05.661Z,99561.38
2023-04-09T09:10:11.242Z,99550.00
2023-04-09T09:15:32.346Z,99540.22
2023-04-09T09:20:41.964Z,99536.34
2023-04-09T09:25:47.640Z,99543.00
2023-04-09T09:30:52.997Z,99545.03
2023-04-09T09:35:59.158Z,99539.88
2023-04-09T09:41:19.331Z,99561.59
2023-04-09T09:46:27.617Z,99533.97
2023-04-09T09:51:35.471Z,99547.75
2023-04-09T09:56:44.153Z,99538.97
2023-04-09T10:01:53.079Z,99540.38
2023-04-09T10:07:03.102Z,99532.38
2023-04-09T10:12:10.626Z,99571.63
2023-04-09T10:17:15.962Z,99553.69
2023-04-09T10:22:28.023Z,99536.56
2023-04-09T10:27:32.999Z,99558.78
2023-04-09T10:32:38.418Z,99576.47
2023-04-09T10:37:52.100Z,99552.56
2023-04-09T10:43:01.973Z,99569.69
2023-04-09T10:48:07.625Z,99570.56
2023-04-09T10:53:25.445Z,99570.03
2023-04-09T10:58:30.733Z,99586.16
2023-04-09T11:03:49.969Z,99581.63
2023-04-09T11:08:55.073Z,99614.00
2023-04-09T11:14:03.149Z,99582.78
2023-04-09T11:19:11.161Z,99610.66
2023-04-09T11:24:17.377Z,99600.28
2023-04-09T11:29:25.128Z,99652.81
2023-04-09T11:34:33.887Z,99638.94
2023-04-09T11:39:46.088Z,99653.16
2023-04-09T11:44:52.049Z,99668.84
2023-04-09T11:49:57.742Z,99672.31
2023-04-09T11:55:12.769Z,99653.31
2023-04-09T12:00:19.488Z,99675.03
2023-04-09T12:05:32.701Z,99674.53
2023-04-09T12:10:40.314Z,99668.25
2023-04-09T12:15:47.935Z,99675.41
2023-04-09T12:20:56.378Z,99702.66
2023-04-09T12:26:04.760Z,99699.84
2023-04-09T12:31:13.336Z,99680.88
2023-04-09T12:36:18.390Z,99689.56
2023-04-09T12:41:23.909Z,99701.59
2023-04-09T12:46:29.804Z,99687.50
2023-04-09T12:51:34.673Z,99689.59
2023-04-09T12:56:40.946Z,99692.78
2023-04-09T13:01:46.240Z,99690.41
2023-04-09T13:06:51.509Z,99699.09
2023-04-09T13:12:00.209Z,99720.50
2023-04-09T13:17:06.984Z,99690.38
2023-04-09T13:22:13.070Z,99692.94
2023-04-09T13:27:18.805Z,99686.66
2023-04-09T13:32:25.520Z,99685.47
2023-04-09T13:37:32.244Z,99683.66
2023-04-09T13:42:38.904Z,99690.88
2023-04-09T13:47:44.410Z,99676.97
2023-04-09T13:52:49.752Z,99674.13
2023-04-09T13:57:55.988Z,99667.59
2023-04-09T14:03:04.422Z,99670.09
2023-04-09T14:08:11.106Z,99666.69
2023-04-09T14:13:16.334Z,99661.34
2023-04-09T14:18:23.044Z,99661.19
2023-04-09T14:23:30.188Z,99663.28
2023-04-09T14:28:35.282Z,99655.50
2023-04-09T14:33:41.444Z,99652.44
2023-04-09T14:38:47.042Z,99639.75
2023-04-09T14:43:52.761Z,99640.84
2023-04-09T14:48:58.076Z,99655.25
2023-04-09T14:54:06.930Z,99653.63
2023-04-09T14:59:15.252Z,99666.78
2023-04-09T15:04:23.693Z,99665.59
2023-04-09T15:09:29.190Z,99642.47
2023-04-09T15:14:35.089Z,99634.50
2023-04-09T15:19:40.860Z,99630.84
2023-04-09T15:24:46.388Z,99625.13
2023-04-09T15:29:53.554Z,99630.03
2023-04-09T15:34:59.422Z,99625.78
2023-04-09T15:40:05.920Z,99621.91
2023-04-09T15:45:11.662Z,99615.34
2023-04-09T15:50:18.349Z,99621.94
2023-04-09T15:55:28.002Z,99624.41
2023-04-09T16:00:33.594Z,99618.28
2023-04-09T16:05:41.152Z,99623.78
2023-04-09T16:10:46.574Z,99609.88
2023-04-09T16:15:52.776Z,99615.00
2023-04-09T16:20:59.400Z,99617.06
2023-04-09T16:26:05.474Z,99611.34
2023-04-09T16:31:12.029Z,99607.03
2023-04-09T16:36:17.798Z,99595.41
2023-04-09T16:41:23.114Z,99598.25
2023-04-09T16:46:28.357Z,99619.56
2023-04-09T16:51:33.848Z,99593.59
2023-04-09T16:56:39.342Z,99589.91
2023-04-09T17:01:44.959Z,99598.53
2023-04-09T17:06:52.344Z,99599.97
2023-04-09T17:11:59.341Z,99594.66
2023-04-09T17:17:04.401Z,99613.09
2023-04-09T17:22:12.771Z,99610.41
2023-04-09T17:27:17.961Z,99613.06
2023-04-09T17:32:23.117Z,99633.75
2023-04-09T17:37:30.334Z,99591.81
2023-04-09T17:42:35.120Z,99579.16
2023-04-09T17:47:43.253Z,99568.13
2023-04-09T17:52:48.868Z,99558.69
2023-04-09T17:57:53.369Z,99562.19
2023-04-09T18:02:59.082Z,99585.88
2023-04-09T18:08:04.434Z,99559.06
2023-04-09T18:13:09.229Z,99551.50
2023-04-09T18:18:14.037Z,99544.16
2023-04-09T18:23:19.092Z,99543.97
2023-04-09T18:28:23.963Z,99551.72
2023-04-09T18:33:28.933Z,99549.66
2023-04-09T18:38:33.935Z,99552.94
2023-04-09T18:43:38.922Z,99555.19
2023-04-09T18:48:48.307Z,99548.22
2023-04-09T18:53:55.866Z,99543.72
2023-04-09T18:59:00.832Z,99548.84
2023-04-09T19:04:05.906Z,99553.50
2023-04-09T19:09:11.279Z,99546.34
2023-04-09T19:14:15.963Z,99552.06
2023-04-09T19:19:20.914Z,99527.34
2023-04-09T19:24:27.442Z,99512.63
2023-04-09T19:29:32.625Z,99506.72
2023-04-09T19:34:37.705Z,99500.78
2023-04-09T19:39:42.954Z,99507.53
2023-04-09T19:44:47.950Z,99523.22
2023-04-09T19:49:52.908Z,99511.38
2023-04-09T19:54:59.070Z,99524.44
2023-04-09T20:00:04.156Z,99512.53
2023-04-09T20:05:15.716Z,99517.22
2023-04-09T20:10:21.869Z,99513.16
2023-04-09T20:15:27.536Z,99494.97
2023-04-09T20:20:32.947Z,99486.78
2023-04-09T20:25:38.140Z,99483.69
2023-04-09T20:30:44.166Z,99462.84
2023-04-09T20:35:49.483Z,99474.03
2023-04-09T20:40:55.463Z,99471.75
2023-04-09T20:46:01.042Z,99462.19
2023-04-09T20:51:12.064Z,99457.88
2023-04-09T20:56:18.879Z,99466.66
2023-04-09T21:01:25.362Z,99481.28
2023-04-09T21:06:30.376Z,99480.06
2023-04-09T21:11:35.397Z,99490.47
2023-04-09T21:16:40.200Z,99508.00
2023-04-09T21:21:45.301Z,99506.19
2023-04-09T21:26:52.107Z,99494.53
2023-04-09T21:31:57.169Z,99501.69
2023-04-09T21:37:05.625Z,99507.19
2023-04-09T21:42:10.596Z,99515.13
2023-04-09T21:47:15.595Z,99512.47
2023-04-09T21:52:20.544Z,99508.84
2023-04-09T21:57:25.692Z,99528.56
2023-04-09T22:02:31.498Z,99548.97
2023-04-09T22:07:38.429Z,99550.81
2023-04-09T22:12:44.526Z,99562.00
2023-04-09T22:17:49.619Z,99567.47
2023-04-09T22:22:56.314Z,99552.78
2023-04-09T22:28:01.232Z,99555.69
2023-04-09T22:33:06.189Z,99540.84
2023-04-09T22:38:11.496Z,99554.75
2023-04-09T22:43:16.770Z,99549.91
2023-04-09T22:48:23.232Z,99546.13
2023-04-09T22:53:28.289Z,99551.25
2023-04-09T22:58:34.276Z,99554.75
2023-04-09T23:03:38.758Z,99551.31
2023-04-09T23:08:43.463Z,99562.94
2023-04-09T23:13:48.661Z,99580.94
2023-04-09T23:18:54.828Z,99588.13
2023-04-09T23:23:59.938Z,99562.00
2023-04-09T23:29:05.958Z,99590.81
2023-04-09T23:34:11.970Z,99579.63
2023-04-09T23:39:17.303Z,99581.28
2023-04-09T23:44:22.108Z,99578.84
2023-04-09T23:49:29.863Z,99565.22
2023-04-09T23:54:34.705Z,99561.16
2023-04-09T23:59:39.592Z,99561.16
